sensor_id;sensor_type;location;lat;lon;timestamp;P1;durP1;ratioP1;P2;durP2;ratioP2
55728;SDS011;41633;39.720;2.910;2023-05-10T00:02:16;9.82;;;2.20;;
55728;SDS011;41633;39.720;2.910;2023-05-10T00:04:42;10.05;;;2.72;;
55728;SDS011;41633;39.720;2.910;2023-05-10T00:07:08;9.02;;;2.30;;
55728;SDS011;41633;39.720;2.910;2023-05-10T00:09:35;7.63;;;1.90;;
55728;SDS011;41633;39.720;2.910;2023-05-10T00:12:01;9.07;;;2.05;;
55728;SDS011;41633;39.720;2.910;2023-05-10T00:14:27;8.40;;;2.20;;
55728;SDS011;41633;39.720;2.910;2023-05-10T00:16:53;9.93;;;2.15;;
55728;SDS011;41633;39.720;2.910;2023-05-10T00:19:19;9.60;;;2.03;;
55728;SDS011;41633;39.720;2.910;2023-05-10T00:21:46;6.68;;;1.85;;
55728;SDS011;41633;39.720;2.910;2023-05-10T00:24:12;10.45;;;2.05;;
55728;SDS011;41633;39.720;2.910;2023-05-10T00:26:38;9.38;;;2.35;;
55728;SDS011;41633;39.720;2.910;2023-05-10T00:29:04;7.22;;;1.65;;
55728;SDS011;41633;39.720;2.910;2023-05-10T00:31:30;7.50;;;1.77;;
55728;SDS011;41633;39.720;2.910;2023-05-10T00:33:56;10.85;;;2.10;;
55728;SDS011;41633;39.720;2.910;2023-05-10T00:36:22;10.05;;;2.13;;
55728;SDS011;41633;39.720;2.910;2023-05-10T00:38:48;10.25;;;1.85;;
55728;SDS011;41633;39.720;2.910;2023-05-10T00:41:15;9.23;;;2.00;;
55728;SDS011;41633;39.720;2.910;2023-05-10T00:43:41;9.07;;;1.88;;
55728;SDS011;41633;39.720;2.910;2023-05-10T00:46:07;6.10;;;1.63;;
55728;SDS011;41633;39.720;2.910;2023-05-10T00:48:34;7.32;;;1.73;;
55728;SDS011;41633;39.720;2.910;2023-05-10T00:51:00;8.93;;;1.90;;
55728;SDS011;41633;39.720;2.910;2023-05-10T00:53:27;9.77;;;1.63;;
55728;SDS011;41633;39.720;2.910;2023-05-10T00:55:53;6.55;;;1.33;;
55728;SDS011;41633;39.720;2.910;2023-05-10T00:58:19;8.38;;;1.60;;
55728;SDS011;41633;39.720;2.910;2023-05-10T01:00:45;10.07;;;1.80;;
55728;SDS011;41633;39.720;2.910;2023-05-10T01:03:13;9.10;;;1.83;;
55728;SDS011;41633;39.720;2.910;2023-05-10T01:05:39;8.60;;;1.50;;
55728;SDS011;41633;39.720;2.910;2023-05-10T01:08:06;7.60;;;1.42;;
55728;SDS011;41633;39.720;2.910;2023-05-10T01:10:33;7.75;;;1.70;;
55728;SDS011;41633;39.720;2.910;2023-05-10T01:12:59;8.98;;;1.50;;
55728;SDS011;41633;39.720;2.910;2023-05-10T01:15:26;8.80;;;1.60;;
55728;SDS011;41633;39.720;2.910;2023-05-10T01:17:52;11.23;;;1.25;;
55728;SDS011;41633;39.720;2.910;2023-05-10T01:20:19;5.75;;;1.15;;
55728;SDS011;41633;39.720;2.910;2023-05-10T01:23:09;7.80;;;1.30;;
55728;SDS011;41633;39.720;2.910;2023-05-10T01:30:42;8.63;;;1.30;;
55728;SDS011;41633;39.720;2.910;2023-05-10T01:35:55;5.68;;;1.27;;
55728;SDS011;41633;39.720;2.910;2023-05-10T01:41:07;7.47;;;1.23;;
55728;SDS011;41633;39.720;2.910;2023-05-10T01:44:01;6.15;;;1.10;;
55728;SDS011;41633;39.720;2.910;2023-05-10T01:46:27;5.20;;;0.90;;
55728;SDS011;41633;39.720;2.910;2023-05-10T01:48:55;8.05;;;1.50;;
55728;SDS011;41633;39.720;2.910;2023-05-10T01:51:26;7.20;;;1.42;;
55728;SDS011;41633;39.720;2.910;2023-05-10T01:53:54;9.60;;;1.52;;
55728;SDS011;41633;39.720;2.910;2023-05-10T01:56:23;6.70;;;1.20;;
55728;SDS011;41633;39.720;2.910;2023-05-10T01:58:50;6.85;;;1.25;;
55728;SDS011;41633;39.720;2.910;2023-05-10T02:01:16;4.30;;;0.95;;
55728;SDS011;41633;39.720;2.910;2023-05-10T02:03:45;5.25;;;1.02;;
55728;SDS011;41633;39.720;2.910;2023-05-10T02:06:12;4.70;;;0.90;;
55728;SDS011;41633;39.720;2.910;2023-05-10T02:08:39;6.18;;;1.20;;
55728;SDS011;41633;39.720;2.910;2023-05-10T02:11:05;5.70;;;1.02;;
55728;SDS011;41633;39.720;2.910;2023-05-10T02:13:32;7.50;;;1.40;;
55728;SDS011;41633;39.720;2.910;2023-05-10T02:16:00;7.85;;;1.10;;
55728;SDS011;41633;39.720;2.910;2023-05-10T02:18:27;6.40;;;1.02;;
55728;SDS011;41633;39.720;2.910;2023-05-10T02:20:55;6.90;;;0.90;;
55728;SDS011;41633;39.720;2.910;2023-05-10T02:23:21;5.05;;;1.02;;
55728;SDS011;41633;39.720;2.910;2023-05-10T02:37:46;4.10;;;0.80;;
55728;SDS011;41633;39.720;2.910;2023-05-10T02:40:12;5.50;;;0.80;;
55728;SDS011;41633;39.720;2.910;2023-05-10T02:42:41;5.68;;;1.23;;
55728;SDS011;41633;39.720;2.910;2023-05-10T02:45:13;5.13;;;0.95;;
55728;SDS011;41633;39.720;2.910;2023-05-10T02:47:39;4.47;;;0.80;;
55728;SDS011;41633;39.720;2.910;2023-05-10T02:50:05;4.97;;;1.00;;
55728;SDS011;41633;39.720;2.910;2023-05-10T02:52:42;4.72;;;1.00;;
55728;SDS011;41633;39.720;2.910;2023-05-10T02:55:11;3.97;;;0.70;;
55728;SDS011;41633;39.720;2.910;2023-05-10T02:57:39;3.28;;;0.75;;
55728;SDS011;41633;39.720;2.910;2023-05-10T03:00:06;3.88;;;0.63;;
55728;SDS011;41633;39.720;2.910;2023-05-10T03:02:33;4.95;;;0.90;;
55728;SDS011;41633;39.720;2.910;2023-05-10T03:05:01;5.68;;;0.90;;
55728;SDS011;41633;39.720;2.910;2023-05-10T03:07:28;4.15;;;0.80;;
55728;SDS011;41633;39.720;2.910;2023-05-10T03:09:54;3.85;;;0.70;;
55728;SDS011;41633;39.720;2.910;2023-05-10T03:17:29;6.50;;;1.08;;
55728;SDS011;41633;39.720;2.910;2023-05-10T03:20:03;4.30;;;0.85;;
55728;SDS011;41633;39.720;2.910;2023-05-10T03:22:45;5.07;;;1.02;;
55728;SDS011;41633;39.720;2.910;2023-05-10T03:25:12;1.80;;;0.50;;
55728;SDS011;41633;39.720;2.910;2023-05-10T03:27:41;2.40;;;0.60;;
55728;SDS011;41633;39.720;2.910;2023-05-10T03:30:10;3.90;;;0.80;;
55728;SDS011;41633;39.720;2.910;2023-05-10T03:32:36;4.45;;;0.60;;
55728;SDS011;41633;39.720;2.910;2023-05-10T03:35:06;6.15;;;0.77;;
55728;SDS011;41633;39.720;2.910;2023-05-10T03:37:33;2.97;;;0.60;;
55728;SDS011;41633;39.720;2.910;2023-05-10T03:39:59;4.38;;;0.60;;
55728;SDS011;41633;39.720;2.910;2023-05-10T03:42:26;3.33;;;0.70;;
55728;SDS011;41633;39.720;2.910;2023-05-10T03:44:52;3.47;;;0.52;;
55728;SDS011;41633;39.720;2.910;2023-05-10T03:47:18;2.80;;;0.60;;
55728;SDS011;41633;39.720;2.910;2023-05-10T03:49:44;2.42;;;0.70;;
55728;SDS011;41633;39.720;2.910;2023-05-10T03:52:11;5.15;;;0.90;;
55728;SDS011;41633;39.720;2.910;2023-05-10T03:54:37;3.92;;;0.57;;
55728;SDS011;41633;39.720;2.910;2023-05-10T03:57:03;4.85;;;0.90;;
55728;SDS011;41633;39.720;2.910;2023-05-10T03:59:29;9.35;;;0.80;;
55728;SDS011;41633;39.720;2.910;2023-05-10T04:01:56;3.20;;;0.63;;
55728;SDS011;41633;39.720;2.910;2023-05-10T04:04:22;3.28;;;0.68;;
55728;SDS011;41633;39.720;2.910;2023-05-10T04:06:48;2.47;;;0.50;;
55728;SDS011;41633;39.720;2.910;2023-05-10T04:09:14;3.70;;;0.70;;
55728;SDS011;41633;39.720;2.910;2023-05-10T04:11:42;3.42;;;0.70;;
55728;SDS011;41633;39.720;2.910;2023-05-10T04:14:08;6.97;;;0.98;;
55728;SDS011;41633;39.720;2.910;2023-05-10T04:16:34;3.92;;;0.90;;
55728;SDS011;41633;39.720;2.910;2023-05-10T04:19:00;3.92;;;0.93;;
55728;SDS011;41633;39.720;2.910;2023-05-10T04:21:27;4.57;;;1.05;;
55728;SDS011;41633;39.720;2.910;2023-05-10T04:23:53;3.40;;;0.70;;
55728;SDS011;41633;39.720;2.910;2023-05-10T04:26:20;6.32;;;1.48;;
55728;SDS011;41633;39.720;2.910;2023-05-10T04:28:47;5.20;;;1.05;;
55728;SDS011;41633;39.720;2.910;2023-05-10T04:31:13;3.90;;;1.00;;
55728;SDS011;41633;39.720;2.910;2023-05-10T04:33:39;7.55;;;1.25;;
55728;SDS011;41633;39.720;2.910;2023-05-10T04:36:05;6.47;;;1.40;;
55728;SDS011;41633;39.720;2.910;2023-05-10T04:38:32;2.92;;;0.93;;
55728;SDS011;41633;39.720;2.910;2023-05-10T04:41:05;7.05;;;1.10;;
55728;SDS011;41633;39.720;2.910;2023-05-10T04:43:32;7.25;;;1.40;;
55728;SDS011;41633;39.720;2.910;2023-05-10T04:45:58;6.00;;;1.35;;
55728;SDS011;41633;39.720;2.910;2023-05-10T04:48:24;7.97;;;1.50;;
55728;SDS011;41633;39.720;2.910;2023-05-10T04:50:50;12.23;;;1.75;;
55728;SDS011;41633;39.720;2.910;2023-05-10T04:53:16;7.50;;;1.30;;
55728;SDS011;41633;39.720;2.910;2023-05-10T04:55:42;7.80;;;2.55;;
55728;SDS011;41633;39.720;2.910;2023-05-10T04:58:09;7.38;;;2.05;;
55728;SDS011;41633;39.720;2.910;2023-05-10T05:00:35;6.50;;;2.03;;
55728;SDS011;41633;39.720;2.910;2023-05-10T05:03:01;7.90;;;1.73;;
55728;SDS011;41633;39.720;2.910;2023-05-10T05:05:27;9.75;;;1.77;;
55728;SDS011;41633;39.720;2.910;2023-05-10T05:07:53;6.68;;;1.25;;
55728;SDS011;41633;39.720;2.910;2023-05-10T05:10:19;7.10;;;1.48;;
55728;SDS011;41633;39.720;2.910;2023-05-10T05:12:45;7.20;;;1.42;;
55728;SDS011;41633;39.720;2.910;2023-05-10T05:15:11;5.55;;;0.95;;
55728;SDS011;41633;39.720;2.910;2023-05-10T05:17:38;5.63;;;1.23;;
55728;SDS011;41633;39.720;2.910;2023-05-10T05:20:04;4.28;;;0.90;;
55728;SDS011;41633;39.720;2.910;2023-05-10T05:22:30;6.85;;;1.25;;
55728;SDS011;41633;39.720;2.910;2023-05-10T05:24:57;5.70;;;0.90;;
55728;SDS011;41633;39.720;2.910;2023-05-10T05:27:23;6.68;;;1.10;;
55728;SDS011;41633;39.720;2.910;2023-05-10T05:29:54;5.78;;;1.40;;
55728;SDS011;41633;39.720;2.910;2023-05-10T05:32:21;4.80;;;1.33;;
55728;SDS011;41633;39.720;2.910;2023-05-10T05:34:47;7.25;;;1.40;;
55728;SDS011;41633;39.720;2.910;2023-05-10T05:37:14;4.35;;;1.05;;
55728;SDS011;41633;39.720;2.910;2023-05-10T05:39:41;4.20;;;1.13;;
55728;SDS011;41633;39.720;2.910;2023-05-10T05:42:07;5.75;;;1.83;;
55728;SDS011;41633;39.720;2.910;2023-05-10T05:44:34;7.93;;;2.10;;
55728;SDS011;41633;39.720;2.910;2023-05-10T05:47:00;8.23;;;2.20;;
55728;SDS011;41633;39.720;2.910;2023-05-10T05:49:26;10.50;;;2.47;;
55728;SDS011;41633;39.720;2.910;2023-05-10T05:51:52;9.18;;;2.42;;
55728;SDS011;41633;39.720;2.910;2023-05-10T05:54:18;7.93;;;2.00;;
55728;SDS011;41633;39.720;2.910;2023-05-10T05:56:45;7.22;;;1.90;;
55728;SDS011;41633;39.720;2.910;2023-05-10T05:59:11;6.63;;;1.40;;
55728;SDS011;41633;39.720;2.910;2023-05-10T06:01:37;7.40;;;1.15;;
55728;SDS011;41633;39.720;2.910;2023-05-10T06:04:03;3.80;;;1.10;;
55728;SDS011;41633;39.720;2.910;2023-05-10T06:06:29;9.98;;;2.30;;
55728;SDS011;41633;39.720;2.910;2023-05-10T06:08:57;8.98;;;2.00;;
55728;SDS011;41633;39.720;2.910;2023-05-10T06:11:23;10.35;;;1.80;;
55728;SDS011;41633;39.720;2.910;2023-05-10T06:13:50;6.07;;;1.40;;
55728;SDS011;41633;39.720;2.910;2023-05-10T06:16:16;6.95;;;1.10;;
55728;SDS011;41633;39.720;2.910;2023-05-10T06:18:42;7.80;;;1.55;;
55728;SDS011;41633;39.720;2.910;2023-05-10T06:21:09;9.05;;;1.27;;
55728;SDS011;41633;39.720;2.910;2023-05-10T06:23:35;7.90;;;1.30;;
55728;SDS011;41633;39.720;2.910;2023-05-10T06:26:01;7.03;;;1.40;;
55728;SDS011;41633;39.720;2.910;2023-05-10T06:28:28;5.85;;;1.38;;
55728;SDS011;41633;39.720;2.910;2023-05-10T06:30:56;8.13;;;1.42;;
55728;SDS011;41633;39.720;2.910;2023-05-10T06:33:22;5.80;;;1.08;;
55728;SDS011;41633;39.720;2.910;2023-05-10T06:35:48;6.00;;;1.40;;
55728;SDS011;41633;39.720;2.910;2023-05-10T06:38:14;7.97;;;1.13;;
55728;SDS011;41633;39.720;2.910;2023-05-10T06:40:41;5.55;;;1.05;;
55728;SDS011;41633;39.720;2.910;2023-05-10T06:43:07;4.53;;;1.10;;
55728;SDS011;41633;39.720;2.910;2023-05-10T06:45:33;4.05;;;0.88;;
55728;SDS011;41633;39.720;2.910;2023-05-10T06:48:00;6.20;;;1.20;;
55728;SDS011;41633;39.720;2.910;2023-05-10T06:50:26;5.35;;;0.95;;
55728;SDS011;41633;39.720;2.910;2023-05-10T06:52:52;6.47;;;1.30;;
55728;SDS011;41633;39.720;2.910;2023-05-10T06:55:18;5.97;;;1.30;;
55728;SDS011;41633;39.720;2.910;2023-05-10T06:57:44;5.43;;;1.00;;
55728;SDS011;41633;39.720;2.910;2023-05-10T07:00:11;7.35;;;1.38;;
55728;SDS011;41633;39.720;2.910;2023-05-10T07:02:37;8.25;;;1.83;;
55728;SDS011;41633;39.720;2.910;2023-05-10T07:05:03;6.78;;;1.60;;
55728;SDS011;41633;39.720;2.910;2023-05-10T07:07:30;9.30;;;2.38;;
55728;SDS011;41633;39.720;2.910;2023-05-10T07:09:56;7.10;;;1.35;;
55728;SDS011;41633;39.720;2.910;2023-05-10T07:12:23;6.50;;;1.70;;
55728;SDS011;41633;39.720;2.910;2023-05-10T07:14:49;7.00;;;1.33;;
55728;SDS011;41633;39.720;2.910;2023-05-10T07:17:15;7.15;;;1.20;;
55728;SDS011;41633;39.720;2.910;2023-05-10T07:19:41;7.05;;;1.38;;
55728;SDS011;41633;39.720;2.910;2023-05-10T07:22:07;8.80;;;2.05;;
55728;SDS011;41633;39.720;2.910;2023-05-10T07:24:33;6.97;;;1.58;;
55728;SDS011;41633;39.720;2.910;2023-05-10T07:27:00;5.97;;;1.25;;
55728;SDS011;41633;39.720;2.910;2023-05-10T07:29:26;7.00;;;1.80;;
55728;SDS011;41633;39.720;2.910;2023-05-10T07:31:53;6.93;;;1.48;;
55728;SDS011;41633;39.720;2.910;2023-05-10T07:34:19;7.30;;;1.67;;
55728;SDS011;41633;39.720;2.910;2023-05-10T07:36:45;6.57;;;1.50;;
55728;SDS011;41633;39.720;2.910;2023-05-10T07:39:12;8.32;;;1.50;;
55728;SDS011;41633;39.720;2.910;2023-05-10T07:41:38;5.05;;;0.98;;
55728;SDS011;41633;39.720;2.910;2023-05-10T07:44:04;7.65;;;1.20;;
55728;SDS011;41633;39.720;2.910;2023-05-10T07:46:30;6.25;;;1.23;;
55728;SDS011;41633;39.720;2.910;2023-05-10T07:48:56;6.32;;;1.10;;
55728;SDS011;41633;39.720;2.910;2023-05-10T07:51:22;5.78;;;1.75;;
55728;SDS011;41633;39.720;2.910;2023-05-10T07:53:49;7.55;;;1.20;;
55728;SDS011;41633;39.720;2.910;2023-05-10T07:56:23;6.90;;;1.23;;
55728;SDS011;41633;39.720;2.910;2023-05-10T07:58:50;5.97;;;1.13;;
55728;SDS011;41633;39.720;2.910;2023-05-10T08:01:17;7.57;;;1.42;;
55728;SDS011;41633;39.720;2.910;2023-05-10T08:03:43;5.22;;;1.13;;
55728;SDS011;41633;39.720;2.910;2023-05-10T08:06:09;6.05;;;1.40;;
55728;SDS011;41633;39.720;2.910;2023-05-10T08:08:36;6.80;;;1.20;;
55728;SDS011;41633;39.720;2.910;2023-05-10T08:11:03;6.97;;;1.27;;
55728;SDS011;41633;39.720;2.910;2023-05-10T08:13:29;8.02;;;1.15;;
55728;SDS011;41633;39.720;2.910;2023-05-10T08:15:56;7.68;;;1.20;;
55728;SDS011;41633;39.720;2.910;2023-05-10T08:18:22;5.82;;;1.10;;
55728;SDS011;41633;39.720;2.910;2023-05-10T08:20:48;8.00;;;1.30;;
55728;SDS011;41633;39.720;2.910;2023-05-10T08:23:15;7.47;;;1.35;;
55728;SDS011;41633;39.720;2.910;2023-05-10T08:25:41;9.73;;;1.60;;
55728;SDS011;41633;39.720;2.910;2023-05-10T08:28:07;6.45;;;1.27;;
55728;SDS011;41633;39.720;2.910;2023-05-10T08:30:34;6.97;;;1.30;;
55728;SDS011;41633;39.720;2.910;2023-05-10T08:33:00;7.18;;;1.40;;
55728;SDS011;41633;39.720;2.910;2023-05-10T08:35:26;5.47;;;1.23;;
55728;SDS011;41633;39.720;2.910;2023-05-10T08:37:52;4.68;;;1.10;;
55728;SDS011;41633;39.720;2.910;2023-05-10T08:40:19;10.68;;;1.40;;
55728;SDS011;41633;39.720;2.910;2023-05-10T08:43:08;5.78;;;1.20;;
55728;SDS011;41633;39.720;2.910;2023-05-10T08:45:32;8.13;;;1.20;;
55728;SDS011;41633;39.720;2.910;2023-05-10T08:48:02;8.30;;;1.38;;
55728;SDS011;41633;39.720;2.910;2023-05-10T08:50:28;7.80;;;1.27;;
55728;SDS011;41633;39.720;2.910;2023-05-10T08:52:55;5.15;;;0.90;;
55728;SDS011;41633;39.720;2.910;2023-05-10T08:55:23;6.03;;;0.85;;
55728;SDS011;41633;39.720;2.910;2023-05-10T08:57:49;8.02;;;1.27;;
55728;SDS011;41633;39.720;2.910;2023-05-10T09:00:16;5.95;;;1.00;;
55728;SDS011;41633;39.720;2.910;2023-05-10T09:02:43;5.20;;;1.00;;
55728;SDS011;41633;39.720;2.910;2023-05-10T09:05:10;5.32;;;1.10;;
55728;SDS011;41633;39.720;2.910;2023-05-10T09:07:37;7.18;;;1.30;;
55728;SDS011;41633;39.720;2.910;2023-05-10T09:10:03;9.82;;;1.50;;
55728;SDS011;41633;39.720;2.910;2023-05-10T09:12:30;5.43;;;0.80;;
55728;SDS011;41633;39.720;2.910;2023-05-10T09:14:56;5.00;;;1.15;;
55728;SDS011;41633;39.720;2.910;2023-05-10T09:17:24;6.30;;;1.05;;
55728;SDS011;41633;39.720;2.910;2023-05-10T09:19:57;6.68;;;1.48;;
55728;SDS011;41633;39.720;2.910;2023-05-10T09:22:23;7.50;;;1.33;;
55728;SDS011;41633;39.720;2.910;2023-05-10T09:25:03;6.00;;;1.30;;
55728;SDS011;41633;39.720;2.910;2023-05-10T09:27:29;8.40;;;1.80;;
55728;SDS011;41633;39.720;2.910;2023-05-10T09:29:55;6.68;;;1.40;;
55728;SDS011;41633;39.720;2.910;2023-05-10T09:32:21;11.07;;;1.38;;
55728;SDS011;41633;39.720;2.910;2023-05-10T09:34:47;7.55;;;1.40;;
55728;SDS011;41633;39.720;2.910;2023-05-10T09:37:16;7.38;;;1.50;;
55728;SDS011;41633;39.720;2.910;2023-05-10T09:39:42;6.93;;;1.30;;
55728;SDS011;41633;39.720;2.910;2023-05-10T09:42:08;6.43;;;1.40;;
55728;SDS011;41633;39.720;2.910;2023-05-10T09:44:35;8.40;;;1.50;;
55728;SDS011;41633;39.720;2.910;2023-05-10T09:47:03;8.75;;;1.90;;
55728;SDS011;41633;39.720;2.910;2023-05-10T09:49:29;8.40;;;1.50;;
55728;SDS011;41633;39.720;2.910;2023-05-10T09:54:28;8.38;;;1.60;;
55728;SDS011;41633;39.720;2.910;2023-05-10T09:56:54;9.35;;;1.80;;
55728;SDS011;41633;39.720;2.910;2023-05-10T09:59:20;6.65;;;1.55;;
55728;SDS011;41633;39.720;2.910;2023-05-10T10:01:50;7.00;;;1.58;;
55728;SDS011;41633;39.720;2.910;2023-05-10T10:04:16;9.30;;;1.70;;
55728;SDS011;41633;39.720;2.910;2023-05-10T10:06:42;9.23;;;1.60;;
55728;SDS011;41633;39.720;2.910;2023-05-10T10:09:09;9.32;;;1.80;;
55728;SDS011;41633;39.720;2.910;2023-05-10T10:11:36;8.20;;;1.70;;
55728;SDS011;41633;39.720;2.910;2023-05-10T10:14:02;5.50;;;1.48;;
55728;SDS011;41633;39.720;2.910;2023-05-10T10:16:28;9.23;;;2.05;;
55728;SDS011;41633;39.720;2.910;2023-05-10T10:18:55;9.40;;;2.03;;
55728;SDS011;41633;39.720;2.910;2023-05-10T10:21:21;10.07;;;2.40;;
55728;SDS011;41633;39.720;2.910;2023-05-10T10:23:48;11.25;;;2.40;;
55728;SDS011;41633;39.720;2.910;2023-05-10T10:26:15;12.00;;;2.35;;
55728;SDS011;41633;39.720;2.910;2023-05-10T10:28:51;14.00;;;2.92;;
55728;SDS011;41633;39.720;2.910;2023-05-10T10:34:06;10.75;;;2.40;;
55728;SDS011;41633;39.720;2.910;2023-05-10T10:36:39;11.27;;;2.25;;
55728;SDS011;41633;39.720;2.910;2023-05-10T10:39:08;10.95;;;2.10;;
55728;SDS011;41633;39.720;2.910;2023-05-10T10:41:36;11.95;;;2.20;;
55728;SDS011;41633;39.720;2.910;2023-05-10T10:52:21;11.10;;;2.78;;
55728;SDS011;41633;39.720;2.910;2023-05-10T10:54:52;12.30;;;2.55;;
55728;SDS011;41633;39.720;2.910;2023-05-10T10:57:19;10.52;;;2.17;;
55728;SDS011;41633;39.720;2.910;2023-05-10T10:59:51;13.10;;;2.45;;
55728;SDS011;41633;39.720;2.910;2023-05-10T11:07:53;9.10;;;2.05;;
55728;SDS011;41633;39.720;2.910;2023-05-10T11:10:20;12.52;;;2.20;;
55728;SDS011;41633;39.720;2.910;2023-05-10T11:13:02;10.18;;;2.40;;
55728;SDS011;41633;39.720;2.910;2023-05-10T11:15:33;10.05;;;2.15;;
55728;SDS011;41633;39.720;2.910;2023-05-10T11:18:00;11.70;;;2.28;;
55728;SDS011;41633;39.720;2.910;2023-05-10T11:20:41;15.48;;;2.72;;
55728;SDS011;41633;39.720;2.910;2023-05-10T11:23:11;11.65;;;2.55;;
55728;SDS011;41633;39.720;2.910;2023-05-10T11:25:41;10.13;;;2.13;;
55728;SDS011;41633;39.720;2.910;2023-05-10T11:28:11;11.52;;;2.17;;
55728;SDS011;41633;39.720;2.910;2023-05-10T11:30:38;9.77;;;2.20;;
55728;SDS011;41633;39.720;2.910;2023-05-10T11:33:05;9.07;;;1.80;;
55728;SDS011;41633;39.720;2.910;2023-05-10T11:35:36;9.10;;;1.67;;
55728;SDS011;41633;39.720;2.910;2023-05-10T11:38:04;10.57;;;1.85;;
55728;SDS011;41633;39.720;2.910;2023-05-10T11:40:30;10.00;;;2.08;;
55728;SDS011;41633;39.720;2.910;2023-05-10T11:42:57;9.60;;;2.42;;
55728;SDS011;41633;39.720;2.910;2023-05-10T11:45:23;7.05;;;1.60;;
55728;SDS011;41633;39.720;2.910;2023-05-10T11:47:49;10.57;;;2.30;;
55728;SDS011;41633;39.720;2.910;2023-05-10T11:50:16;9.52;;;1.80;;
55728;SDS011;41633;39.720;2.910;2023-05-10T11:52:43;7.78;;;1.40;;
55728;SDS011;41633;39.720;2.910;2023-05-10T11:55:09;9.68;;;1.85;;
55728;SDS011;41633;39.720;2.910;2023-05-10T11:57:35;8.98;;;2.03;;
55728;SDS011;41633;39.720;2.910;2023-05-10T12:00:03;8.88;;;2.00;;
55728;SDS011;41633;39.720;2.910;2023-05-10T12:02:30;7.57;;;1.83;;
55728;SDS011;41633;39.720;2.910;2023-05-10T12:04:56;10.30;;;1.85;;
55728;SDS011;41633;39.720;2.910;2023-05-10T12:07:22;9.27;;;1.77;;
55728;SDS011;41633;39.720;2.910;2023-05-10T12:12:37;6.78;;;1.60;;
55728;SDS011;41633;39.720;2.910;2023-05-10T12:15:04;7.10;;;1.55;;
55728;SDS011;41633;39.720;2.910;2023-05-10T12:17:31;9.07;;;1.90;;
55728;SDS011;41633;39.720;2.910;2023-05-10T12:20:13;7.63;;;1.65;;
55728;SDS011;41633;39.720;2.910;2023-05-10T12:22:40;9.15;;;1.80;;
55728;SDS011;41633;39.720;2.910;2023-05-10T12:25:07;9.55;;;2.28;;
55728;SDS011;41633;39.720;2.910;2023-05-10T12:27:34;7.60;;;1.60;;
55728;SDS011;41633;39.720;2.910;2023-05-10T12:30:01;10.88;;;2.30;;
55728;SDS011;41633;39.720;2.910;2023-05-10T12:32:40;11.50;;;2.67;;
55728;SDS011;41633;39.720;2.910;2023-05-10T12:35:07;12.10;;;2.67;;
55728;SDS011;41633;39.720;2.910;2023-05-10T12:37:34;13.55;;;2.88;;
55728;SDS011;41633;39.720;2.910;2023-05-10T12:40:05;11.68;;;2.85;;
55728;SDS011;41633;39.720;2.910;2023-05-10T12:42:31;14.88;;;3.30;;
55728;SDS011;41633;39.720;2.910;2023-05-10T12:44:57;14.95;;;3.08;;
55728;SDS011;41633;39.720;2.910;2023-05-10T12:47:24;11.32;;;2.85;;
55728;SDS011;41633;39.720;2.910;2023-05-10T12:49:50;12.80;;;3.20;;
55728;SDS011;41633;39.720;2.910;2023-05-10T12:52:16;12.15;;;2.92;;
55728;SDS011;41633;39.720;2.910;2023-05-10T12:54:42;14.32;;;3.10;;
55728;SDS011;41633;39.720;2.910;2023-05-10T12:57:08;13.23;;;2.72;;
55728;SDS011;41633;39.720;2.910;2023-05-10T12:59:35;14.73;;;3.28;;
55728;SDS011;41633;39.720;2.910;2023-05-10T13:02:01;15.52;;;3.38;;
55728;SDS011;41633;39.720;2.910;2023-05-10T13:04:27;12.75;;;3.35;;
55728;SDS011;41633;39.720;2.910;2023-05-10T13:06:53;12.82;;;2.75;;
55728;SDS011;41633;39.720;2.910;2023-05-10T13:09:23;13.65;;;3.13;;
55728;SDS011;41633;39.720;2.910;2023-05-10T13:11:50;14.95;;;3.00;;
55728;SDS011;41633;39.720;2.910;2023-05-10T13:14:18;12.57;;;2.67;;
55728;SDS011;41633;39.720;2.910;2023-05-10T13:16:45;12.60;;;2.85;;
55728;SDS011;41633;39.720;2.910;2023-05-10T13:19:12;11.43;;;2.72;;
55728;SDS011;41633;39.720;2.910;2023-05-10T13:21:38;14.85;;;3.20;;
55728;SDS011;41633;39.720;2.910;2023-05-10T13:24:09;15.02;;;2.97;;
55728;SDS011;41633;39.720;2.910;2023-05-10T13:26:35;10.07;;;2.67;;
55728;SDS011;41633;39.720;2.910;2023-05-10T13:29:02;15.27;;;3.10;;
55728;SDS011;41633;39.720;2.910;2023-05-10T13:31:28;13.30;;;2.95;;
55728;SDS011;41633;39.720;2.910;2023-05-10T13:33:55;11.25;;;2.90;;
55728;SDS011;41633;39.720;2.910;2023-05-10T13:36:21;12.43;;;2.83;;
55728;SDS011;41633;39.720;2.910;2023-05-10T13:38:47;11.10;;;2.13;;
55728;SDS011;41633;39.720;2.910;2023-05-10T13:41:14;11.23;;;2.70;;
55728;SDS011;41633;39.720;2.910;2023-05-10T13:43:40;11.95;;;2.85;;
55728;SDS011;41633;39.720;2.910;2023-05-10T13:46:06;12.85;;;2.90;;
55728;SDS011;41633;39.720;2.910;2023-05-10T13:48:32;13.20;;;2.75;;
55728;SDS011;41633;39.720;2.910;2023-05-10T13:50:58;11.63;;;2.80;;
55728;SDS011;41633;39.720;2.910;2023-05-10T13:53:25;13.15;;;3.00;;
55728;SDS011;41633;39.720;2.910;2023-05-10T13:55:51;12.43;;;2.80;;
55728;SDS011;41633;39.720;2.910;2023-05-10T13:58:17;12.20;;;2.53;;
55728;SDS011;41633;39.720;2.910;2023-05-10T14:00:43;11.43;;;2.60;;
55728;SDS011;41633;39.720;2.910;2023-05-10T14:03:09;9.57;;;2.40;;
55728;SDS011;41633;39.720;2.910;2023-05-10T14:05:35;11.20;;;2.35;;
55728;SDS011;41633;39.720;2.910;2023-05-10T14:08:02;12.07;;;3.13;;
55728;SDS011;41633;39.720;2.910;2023-05-10T14:10:29;11.18;;;2.80;;
55728;SDS011;41633;39.720;2.910;2023-05-10T14:12:55;14.82;;;3.05;;
55728;SDS011;41633;39.720;2.910;2023-05-10T14:15:21;12.95;;;3.05;;
55728;SDS011;41633;39.720;2.910;2023-05-10T14:17:48;15.35;;;2.65;;
55728;SDS011;41633;39.720;2.910;2023-05-10T14:20:14;13.20;;;2.97;;
55728;SDS011;41633;39.720;2.910;2023-05-10T14:22:40;10.63;;;2.72;;
55728;SDS011;41633;39.720;2.910;2023-05-10T14:25:06;12.93;;;2.42;;
55728;SDS011;41633;39.720;2.910;2023-05-10T14:27:32;11.80;;;2.70;;
55728;SDS011;41633;39.720;2.910;2023-05-10T14:29:59;12.02;;;2.97;;
55728;SDS011;41633;39.720;2.910;2023-05-10T14:32:25;13.80;;;3.05;;
55728;SDS011;41633;39.720;2.910;2023-05-10T14:34:52;10.55;;;3.00;;
55728;SDS011;41633;39.720;2.910;2023-05-10T14:37:18;11.05;;;2.45;;
55728;SDS011;41633;39.720;2.910;2023-05-10T14:39:44;11.18;;;2.53;;
55728;SDS011;41633;39.720;2.910;2023-05-10T14:42:11;10.55;;;2.88;;
55728;SDS011;41633;39.720;2.910;2023-05-10T14:44:37;14.73;;;3.30;;
55728;SDS011;41633;39.720;2.910;2023-05-10T14:47:03;12.50;;;3.20;;
55728;SDS011;41633;39.720;2.910;2023-05-10T14:49:30;10.65;;;2.78;;
55728;SDS011;41633;39.720;2.910;2023-05-10T14:51:56;13.68;;;3.08;;
55728;SDS011;41633;39.720;2.910;2023-05-10T14:54:22;13.93;;;3.15;;
55728;SDS011;41633;39.720;2.910;2023-05-10T14:56:48;12.77;;;3.10;;
55728;SDS011;41633;39.720;2.910;2023-05-10T14:59:15;11.45;;;2.90;;
55728;SDS011;41633;39.720;2.910;2023-05-10T15:01:41;11.23;;;3.00;;
55728;SDS011;41633;39.720;2.910;2023-05-10T15:04:08;9.95;;;2.60;;
55728;SDS011;41633;39.720;2.910;2023-05-10T15:06:34;12.88;;;2.75;;
55728;SDS011;41633;39.720;2.910;2023-05-10T15:09:01;13.57;;;2.90;;
55728;SDS011;41633;39.720;2.910;2023-05-10T15:11:28;10.93;;;2.25;;
55728;SDS011;41633;39.720;2.910;2023-05-10T15:13:54;13.57;;;3.05;;
55728;SDS011;41633;39.720;2.910;2023-05-10T15:16:20;10.20;;;2.50;;
55728;SDS011;41633;39.720;2.910;2023-05-10T15:18:47;12.13;;;3.05;;
55728;SDS011;41633;39.720;2.910;2023-05-10T15:21:13;10.18;;;2.50;;
55728;SDS011;41633;39.720;2.910;2023-05-10T15:23:39;11.25;;;2.50;;
55728;SDS011;41633;39.720;2.910;2023-05-10T15:26:05;12.07;;;3.03;;
55728;SDS011;41633;39.720;2.910;2023-05-10T15:28:31;13.02;;;2.50;;
55728;SDS011;41633;39.720;2.910;2023-05-10T15:30:57;13.38;;;2.78;;
55728;SDS011;41633;39.720;2.910;2023-05-10T15:33:24;11.07;;;2.50;;